Time;durP1;ratioP1;P1;durP2;ratioP2;P2;SDS_P1;SDS_P2;PMS_P1;PMS_P2;Temp;Humidity;BMP_temperature;BMP_pressure;BME280_temperature;BME280_humidity;BME280_pressure;Samples;Min_cycle;Max_cycle;Signal;HPM_P1;HPM_P2
2023/06/20 00:02:25;;;;;;;7.30;6.40;;;;;;;14.08;87.11;96440.78;5117266;28;20073;-67
2023/06/20 00:04:54;;;;;;;7.93;6.65;;;;;;;14.13;86.59;96442.25;5117097;28;20500;-67
2023/06/20 00:07:21;;;;;;;9.95;6.70;;;;;;;14.18;86.27;96443.78;5117232;28;20040;-65
2023/06/20 00:09:48;;;;;;;9.15;5.65;;;;;;;14.17;85.84;96442.94;5117137;27;20052;-66
2023/06/20 00:12:14;;;;;;;14.32;6.20;;;;;;;14.18;85.35;96441.16;5117246;28;20502;-65
2023/06/20 00:14:42;;;;;;;7.70;6.00;;;;;;;14.18;85.21;96441.16;5116933;28;20563;-67
2023/06/20 00:17:09;;;;;;;6.57;5.85;;;;;;;14.20;84.87;96442.75;5117023;28;20048;-65
2023/06/20 00:19:36;;;;;;;11.65;6.00;;;;;;;14.17;85.02;96435.03;5117045;28;20427;-68
2023/06/20 00:22:05;;;;;;;10.82;6.55;;;;;;;14.20;85.31;96439.28;5117063;28;20047;-68
2023/06/20 00:24:32;;;;;;;6.95;6.25;;;;;;;14.21;84.86;96436.56;5116970;28;20047;-67
2023/06/20 00:27:00;;;;;;;9.30;6.57;;;;;;;14.21;84.86;96426.03;5116765;28;20130;-66
2023/06/20 00:29:27;;;;;;;10.52;6.57;;;;;;;14.20;85.11;96423.50;5116893;28;20051;-68
2023/06/20 00:31:54;;;;;;;10.30;7.10;;;;;;;14.19;85.55;96424.44;5116713;28;20492;-67
2023/06/20 00:34:21;;;;;;;7.30;6.60;;;;;;;14.20;85.61;96421.72;5116760;28;20044;-66
2023/06/20 00:36:48;;;;;;;7.75;6.63;;;;;;;14.25;85.38;96417.06;5116702;28;20495;-67
2023/06/20 00:39:17;;;;;;;11.98;6.63;;;;;;;14.28;85.54;96416.91;5116479;28;20120;-66
2023/06/20 00:41:44;;;;;;;9.30;7.07;;;;;;;14.25;85.38;96414.44;5116270;28;20058;-66
2023/06/20 00:44:11;;;;;;;10.27;6.43;;;;;;;14.27;85.85;96423.06;5116408;28;20050;-68
2023/06/20 00:46:40;;;;;;;9.30;6.97;;;;;;;14.25;85.93;96432.84;5116517;28;20050;-67
2023/06/20 00:49:10;;;;;;;9.10;7.35;;;;;;;14.23;85.87;96429.44;5116420;27;20055;-68
2023/06/20 00:51:38;;;;;;;10.85;7.22;;;;;;;14.18;86.29;96420.13;5116366;28;20047;-67
2023/06/20 00:54:05;;;;;;;8.07;6.30;;;;;;;14.16;85.78;96420.19;5115706;28;20132;-67
2023/06/20 00:56:34;;;;;;;8.50;6.38;;;;;;;14.15;85.91;96419.34;5116128;27;20051;-65
2023/06/20 00:59:03;;;;;;;7.03;6.32;;;;;;;14.13;85.79;96423.84;5116262;28;20481;-66
2023/06/20 01:01:31;;;;;;;7.28;6.60;;;;;;;14.17;85.63;96426.31;5116083;28;20044;-66
2023/06/20 01:04:00;;;;;;;10.80;7.20;;;;;;;14.19;85.17;96427.06;5116106;28;20043;-65
2023/06/20 01:06:35;;;;;;;7.80;7.00;;;;;;;14.15;85.74;96421.13;5116013;28;20074;-68
2023/06/20 01:09:11;;;;;;;7.78;6.50;;;;;;;14.12;85.88;96421.31;5115978;28;20055;-66
2023/06/20 01:11:46;;;;;;;9.52;6.38;;;;;;;14.14;85.31;96422.91;5115966;28;20079;-65
2023/06/20 01:14:22;;;;;;;8.48;6.47;;;;;;;14.17;84.74;96411.34;5115868;28;20167;-67
2023/06/20 01:16:58;;;;;;;12.43;7.03;;;;;;;14.18;85.24;96417.47;5115812;28;20059;-66
2023/06/20 01:19:44;;;;;;;14.32;6.55;;;;;;;14.19;85.33;96421.81;5115892;28;20092;-67
2023/06/20 01:22:18;;;;;;;8.00;6.38;;;;;;;14.15;85.51;96413.25;5115741;28;20113;-65
2023/06/20 01:24:54;;;;;;;16.30;6.70;;;;;;;14.17;85.76;96427.16;5115683;27;20112;-67
2023/06/20 01:27:29;;;;;;;8.13;7.35;;;;;;;14.17;85.77;96424.50;5115778;28;20477;-68
2023/06/20 01:30:08;;;;;;;7.75;6.25;;;;;;;14.14;85.49;96424.69;5115599;28;20096;-68
2023/06/20 01:32:38;;;;;;;11.77;6.60;;;;;;;14.13;84.95;96421.22;5115670;28;20079;-67
2023/06/20 01:35:10;;;;;;;6.63;5.97;;;;;;;14.17;85.24;96423.69;5115506;28;20550;-65
2023/06/20 01:37:40;;;;;;;8.35;6.10;;;;;;;14.12;84.97;96410.78;5115481;28;20043;-67
2023/06/20 01:40:12;;;;;;;7.53;6.32;;;;;;;14.12;85.22;96416.88;5115241;28;20058;-67
2023/06/20 01:42:40;;;;;;;9.60;6.05;;;;;;;14.13;85.53;96417.72;5115376;28;20086;-67
2023/06/20 01:45:11;;;;;;;9.80;7.07;;;;;;;14.06;85.18;96414.56;5115443;28;20046;-66
2023/06/20 01:47:39;;;;;;;;;;;;;;;14.02;85.06;96415.66;5115651;28;20081;-66
2023/06/20 01:50:08;;;;;;;8.88;6.68;;;;;;;13.99;85.02;96416.69;5115299;28;19920;-67
2023/06/20 01:52:37;;;;;;;8.27;6.43;;;;;;;13.99;86.19;96413.19;5115138;28;20048;-67
2023/06/20 01:55:07;;;;;;;10.70;6.38;;;;;;;13.94;85.79;96410.00;5115104;28;20055;-67
2023/06/20 01:57:37;;;;;;;11.00;6.90;;;;;;;13.93;85.79;96417.00;5115125;28;20048;-68
2023/06/20 02:00:09;;;;;;;10.63;6.50;;;;;;;13.94;85.78;96410.81;5115104;28;20051;-67
2023/06/20 02:02:36;;;;;;;7.95;6.55;;;;;;;13.94;85.45;96413.44;5114938;27;20497;-66
2023/06/20 02:05:07;;;;;;;11.45;7.18;;;;;;;13.93;86.68;96411.75;5114048;28;20408;-66
2023/06/20 02:07:36;;;;;;;7.93;7.10;;;;;;;13.84;88.07;96412.25;5114839;28;20059;-67
2023/06/20 02:10:04;;;;;;;8.38;6.55;;;;;;;13.84;89.00;96413.09;5114668;28;20079;-65
2023/06/20 02:12:32;;;;;;;8.10;7.05;;;;;;;13.82;88.69;96414.94;5114833;28;20409;-66
2023/06/20 02:15:01;;;;;;;7.00;6.30;;;;;;;13.86;89.29;96411.25;5114665;28;20477;-66
2023/06/20 02:17:30;;;;;;;7.63;6.65;;;;;;;13.91;88.78;96413.63;5114810;28;20044;-65
2023/06/20 02:19:57;;;;;;;10.50;7.10;;;;;;;13.95;88.19;96417.78;5114616;28;20134;-67
2023/06/20 02:22:27;;;;;;;7.25;6.55;;;;;;;13.96;87.71;96416.84;5114496;28;20052;-66
2023/06/20 02:24:59;;;;;;;10.07;6.78;;;;;;;13.93;87.41;96408.31;5114539;28;20077;-66
2023/06/20 02:27:28;;;;;;;7.72;6.72;;;;;;;13.94;87.04;96413.44;5114371;28;20052;-66
2023/06/20 02:29:57;;;;;;;9.55;6.53;;;;;;;13.98;86.84;96416.78;5114436;28;20050;-67
2023/06/20 02:32:28;;;;;;;10.65;7.47;;;;;;;14.01;86.80;96420.09;5114406;27;20568;-65
2023/06/20 02:34:57;;;;;;;9.68;6.95;;;;;;;14.05;86.58;96419.94;5114297;28;20488;-67
2023/06/20 02:37:27;;;;;;;10.18;6.00;;;;;;;14.08;86.71;96415.34;5114303;28;20047;-67
2023/06/20 02:39:55;;;;;;;7.70;6.80;;;;;;;14.12;86.17;96427.38;5114286;28;20412;-68
2023/06/20 02:42:22;;;;;;;7.72;6.40;;;;;;;14.16;86.27;96428.09;5114078;28;20051;-65
2023/06/20 02:44:49;;;;;;;6.63;5.97;;;;;;;14.19;86.44;96421.81;5114132;28;20401;-68
2023/06/20 02:47:29;;;;;;;8.68;6.40;;;;;;;14.18;86.20;96426.19;5114177;28;20098;-67
2023/06/20 03:02:02;;;;;;;9.13;6.10;;;;;;;14.97;82.22;96444.72;5070430;28;20379;-68
2023/06/20 03:04:32;;;;;;;9.00;5.88;;;;;;;14.84;82.21;96451.63;5070335;28;20049;-68
2023/06/20 03:07:02;;;;;;;8.68;6.43;;;;;;;14.75;82.32;96456.44;5070358;28;20045;-68
2023/06/20 03:09:32;;;;;;;10.68;5.47;;;;;;;14.70;82.51;96453.22;5069995;28;20049;-68
2023/06/20 03:12:00;;;;;;;6.05;5.45;;;;;;;14.66;82.81;96460.44;5070123;28;20056;-68
2023/06/20 03:14:27;;;;;;;9.57;6.22;;;;;;;14.65;83.05;96461.38;5070117;28;20049;-68
2023/06/20 03:16:54;;;;;;;6.22;5.53;;;;;;;14.64;82.71;96470.22;5070023;28;20049;-69
2023/06/20 03:19:23;;;;;;;8.73;6.15;;;;;;;14.61;83.93;96469.53;5069909;28;20064;-68
2023/06/20 03:21:51;;;;;;;8.15;6.22;;;;;;;14.62;84.66;96460.69;5069821;28;20132;-68
2023/06/20 03:24:18;;;;;;;9.05;5.85;;;;;;;14.64;84.94;96467.59;5069976;28;20060;-68
2023/06/20 03:26:45;;;;;;;8.52;6.07;;;;;;;14.69;85.26;96469.09;5069799;28;20056;-68
2023/06/20 03:29:12;;;;;;;6.10;5.50;;;;;;;14.77;85.27;96465.09;5069818;28;20083;-69
2023/06/20 03:31:40;;;;;;;7.88;5.90;;;;;;;14.96;85.60;96464.06;5069687;28;20051;-69
2023/06/20 03:34:07;;;;;;;5.88;5.35;;;;;;;15.26;84.46;96465.88;5069676;28;20501;-68
2023/06/20 03:36:38;;;;;;;5.43;4.88;;;;;;;15.58;82.78;96464.94;5069605;28;20045;-68
2023/06/20 03:39:05;;;;;;;9.32;5.03;;;;;;;15.96;81.62;96463.59;5069398;28;20053;-68
2023/06/20 03:41:32;;;;;;;4.50;4.03;;;;;;;16.28;79.46;96463.38;5069649;28;20433;-68
2023/06/20 03:43:59;;;;;;;8.25;4.10;;;;;;;16.65;78.03;96464.66;5069557;28;20049;-68
2023/06/20 03:46:26;;;;;;;9.93;4.53;;;;;;;17.02;76.63;96457.00;5069356;28;20497;-68
2023/06/20 03:48:53;;;;;;;6.43;4.63;;;;;;;17.42;74.46;96463.22;5069409;28;20085;-68
2023/06/20 03:51:21;;;;;;;4.78;4.30;;;;;;;17.80;73.26;96465.09;5069234;28;20102;-68
2023/06/20 03:53:49;;;;;;;5.82;4.68;;;;;;;18.18;71.19;96462.53;5069269;28;20048;-68
2023/06/20 03:56:16;;;;;;;4.10;3.70;;;;;;;18.50;69.44;96467.38;5069289;28;20045;-69
2023/06/20 03:58:43;;;;;;;11.57;4.13;;;;;;;18.81;68.39;96469.59;5068993;28;20452;-68
2023/06/20 04:01:11;;;;;;;4.40;4.00;;;;;;;19.10;67.83;96466.66;5065109;28;20049;-68
2023/06/20 04:03:38;;;;;;;6.40;4.20;;;;;;;19.48;66.73;96475.38;5055676;28;20124;-68
2023/06/20 04:06:06;;;;;;;9.40;4.30;;;;;;;19.87;65.98;96480.38;5055966;28;20048;-68
2023/06/20 04:08:33;;;;;;;4.97;3.90;;;;;;;20.23;64.55;96485.66;5055840;28;20483;-68
2023/06/20 04:11:02;;;;;;;5.70;3.85;;;;;;;20.58;63.23;96479.34;5055507;28;20053;-68
2023/06/20 04:13:29;;;;;;;5.40;3.90;;;;;;;20.81;63.11;96479.31;5055585;28;20481;-68
2023/06/20 04:15:57;;;;;;;4.72;4.32;;;;;;;21.12;61.68;96477.78;5055505;28;20085;-68
2023/06/20 04:18:24;;;;;;;4.43;3.53;;;;;;;21.41;61.96;96480.72;5055687;28;20540;-68
2023/06/20 04:20:51;;;;;;;5.80;4.10;;;;;;;21.67;60.23;96482.19;5055597;28;20099;-68
2023/06/20 04:23:18;;;;;;;5.97;3.47;;;;;;;22.01;60.25;96486.47;5055478;28;20053;-68
2023/06/20 04:25:45;;;;;;;5.75;4.10;;;;;;;22.33;58.87;96482.81;5055389;28;20544;-68
2023/06/20 04:28:17;;;;;;;4.82;4.05;;;;;;;22.65;58.00;96489.84;5055449;28;20049;-68
2023/06/20 04:30:44;;;;;;;6.00;3.83;;;;;;;23.04;57.79;96496.25;5055202;28;20045;-68
2023/06/20 04:33:11;;;;;;;5.53;3.78;;;;;;;23.39;56.86;96497.56;5055157;28;20414;-68
2023/06/20 04:35:40;;;;;;;4.82;3.60;;;;;;;23.71;57.00;96504.47;5055257;28;20449;-68
2023/06/20 04:38:08;;;;;;;8.00;3.88;;;;;;;24.05;56.14;96500.44;5055288;28;20052;-69
2023/06/20 04:40:35;;;;;;;5.00;3.60;;;;;;;24.24;55.89;96496.09;5055206;28;20406;-68
2023/06/20 04:43:03;;;;;;;4.15;3.50;;;;;;;24.45;55.68;96493.19;5055128;28;20049;-69
2023/06/20 04:45:32;;;;;;;4.10;3.70;;;;;;;24.56;54.84;96502.84;5055080;28;20135;-69
2023/06/20 04:47:58;;;;;;;4.38;3.60;;;;;;;24.35;53.61;96498.56;5055041;28;20099;-68
2023/06/20 04:50:26;;;;;;;7.50;4.15;;;;;;;24.05;54.20;96502.31;5055001;28;20056;-68
2023/06/20 04:52:53;;;;;;;8.00;4.10;;;;;;;23.63;56.90;96506.16;5054974;28;20045;-69
2023/06/20 04:55:22;;;;;;;4.35;3.90;;;;;;;23.30;58.52;96506.41;5054936;28;20049;-69
2023/06/20 04:57:49;;;;;;;7.47;3.80;;;;;;;23.05;59.66;96503.25;5054890;28;20092;-68
2023/06/20 05:00:17;;;;;;;5.78;4.18;;;;;;;22.87;60.61;96501.28;5054524;28;20052;-69
2023/06/20 05:02:46;;;;;;;7.45;4.05;;;;;;;22.72;61.80;96508.81;5054699;28;20120;-69
2023/06/20 05:05:13;;;;;;;3.90;3.50;;;;;;;22.58;62.59;96508.19;5054639;28;20095;-68
2023/06/20 05:07:41;;;;;;;7.47;4.80;;;;;;;22.59;63.66;96511.72;5054675;28;20049;-69
2023/06/20 05:10:09;;;;;;;4.82;4.00;;;;;;;22.50;62.14;96507.16;5054514;28;20390;-69
2023/06/20 05:12:36;;;;;;;4.80;4.30;;;;;;;22.32;61.15;96510.44;5054022;28;20052;-68
2023/06/20 05:15:04;;;;;;;7.20;4.80;;;;;;;22.38;63.98;96512.59;5053888;28;20081;-69
2023/06/20 05:17:31;;;;;;;4.10;3.70;;;;;;;22.44;65.57;96504.06;5054487;28;20056;-69
2023/06/20 05:20:06;;;;;;;4.32;3.92;;;;;;;22.41;65.41;96511.47;5054430;28;20045;-68
2023/06/20 05:22:34;;;;;;;4.80;4.30;;;;;;;22.45;65.79;96508.41;5054340;28;20049;-68
2023/06/20 05:25:01;;;;;;;4.78;4.38;;;;;;;22.71;66.86;96523.97;5054303;28;20128;-69
2023/06/20 05:27:28;;;;;;;8.77;4.60;;;;;;;23.19;64.96;96521.56;5054299;28;20126;-69
2023/06/20 05:29:55;;;;;;;5.32;4.50;;;;;;;23.77;62.57;96519.06;5054290;28;20049;-69
2023/06/20 05:32:22;;;;;;;5.78;4.03;;;;;;;24.39;59.19;96514.31;5054320;28;20055;-68
2023/06/20 05:34:49;;;;;;;4.50;4.10;;;;;;;25.01;59.87;96521.78;5054231;28;20049;-67
2023/06/20 05:37:19;;;;;;;5.05;4.30;;;;;;;25.57;57.85;96516.34;5054228;28;20118;-68
2023/06/20 05:39:46;;;;;;;4.22;3.70;;;;;;;26.13;56.31;96504.56;5054143;28;20084;-68
2023/06/20 05:42:14;;;;;;;4.18;3.78;;;;;;;26.62;55.65;96512.06;5053927;28;20045;-68
2023/06/20 05:44:41;;;;;;;4.90;4.40;;;;;;;27.10;54.06;96516.97;5053925;28;20052;-68
2023/06/20 05:47:08;;;;;;;4.82;4.40;;;;;;;27.54;53.40;96527.59;5054023;28;20045;-68
2023/06/20 05:49:36;;;;;;;4.78;4.25;;;;;;;27.57;50.26;96524.59;5053903;28;20052;-69
2023/06/20 05:52:03;;;;;;;6.03;4.60;;;;;;;27.68;50.42;96532.34;5053730;28;20053;-69
2023/06/20 05:54:31;;;;;;;13.77;4.90;;;;;;;28.05;49.96;96526.63;5053712;28;20060;-68
2023/06/20 05:56:58;;;;;;;5.88;4.80;;;;;;;28.26;49.25;96528.75;5053640;28;20048;-68
2023/06/20 05:59:26;;;;;;;7.60;4.43;;;;;;;28.58;48.27;96520.81;5053730;28;20426;-69
2023/06/20 06:01:53;;;;;;;5.07;3.97;;;;;;;28.86;47.15;96525.75;5053415;28;20045;-68
2023/06/20 06:04:21;;;;;;;6.53;4.40;;;;;;;29.05;45.02;96526.38;5053683;28;20045;-68
2023/06/20 06:06:48;;;;;;;8.90;4.45;;;;;;;29.20;44.71;96523.78;5053692;28;20041;-68
2023/06/20 06:09:15;;;;;;;5.53;4.18;;;;;;;29.38;45.34;96516.25;5053685;28;20053;-68
2023/06/20 06:11:45;;;;;;;3.78;3.47;;;;;;;29.68;44.84;96520.13;5053730;28;20103;-68
2023/06/20 06:14:12;;;;;;;;;;;;;;;29.87;42.91;96519.63;5054030;28;20048;-69
2023/06/20 06:16:39;;;;;;;8.73;4.32;;;;;;;29.96;42.56;96519.53;5053331;28;19971;-68
2023/06/20 06:19:06;;;;;;;4.25;3.85;;;;;;;30.02;41.39;96516.97;5053283;28;20505;-68
2023/06/20 06:21:33;;;;;;;6.22;3.95;;;;;;;30.09;39.96;96524.31;5053504;28;20143;-68
2023/06/20 06:24:00;;;;;;;3.80;3.50;;;;;;;30.10;38.34;96518.72;5053131;28;20120;-68
2023/06/20 06:26:27;;;;;;;5.10;4.25;;;;;;;30.26;40.93;96516.94;5053180;28;20398;-68
2023/06/20 06:28:56;;;;;;;5.25;3.75;;;;;;;30.30;39.57;96517.38;5053163;28;20041;-68
2023/06/20 06:31:27;;;;;;;4.88;4.30;;;;;;;30.55;40.93;96509.88;5053001;28;20053;-68
2023/06/20 06:33:56;;;;;;;8.18;4.07;;;;;;;30.76;42.20;96506.44;5053067;28;20500;-68
2023/06/20 06:36:24;;;;;;;4.10;3.70;;;;;;;30.83;36.23;96501.16;5053131;28;20129;-68
2023/06/20 06:38:51;;;;;;;4.80;3.55;;;;;;;31.03;39.45;96503.22;5053273;28;20120;-68
2023/06/20 06:41:19;;;;;;;6.93;4.03;;;;;;;31.06;38.59;96494.75;5053106;28;20130;-68
2023/06/20 06:43:47;;;;;;;7.13;3.47;;;;;;;31.28;36.43;96484.81;5053052;28;20139;-68
2023/06/20 06:46:16;;;;;;;4.20;3.80;;;;;;;31.57;36.94;96482.22;5052910;28;20103;-68
2023/06/20 06:48:43;;;;;;;4.38;3.90;;;;;;;31.79;40.05;96474.09;5052958;28;20087;-68
2023/06/20 06:51:10;;;;;;;6.22;3.88;;;;;;;32.07;37.48;96477.84;5052863;28;20102;-68
2023/06/20 06:53:37;;;;;;;6.60;4.15;;;;;;;32.18;35.82;96484.59;5052863;28;20132;-68
2023/06/20 06:56:05;;;;;;;3.90;3.45;;;;;;;32.51;35.85;96492.94;5053209;28;20119;-68
2023/06/20 06:58:32;;;;;;;7.40;3.97;;;;;;;32.87;33.48;96488.31;5052951;28;20045;-68
2023/06/20 07:00:59;;;;;;;3.97;3.67;;;;;;;33.17;34.36;96498.06;5052760;28;20123;-68
2023/06/20 07:03:27;;;;;;;5.55;3.90;;;;;;;33.40;33.46;96496.84;5052933;28;20503;-68
2023/06/20 07:05:54;;;;;;;4.65;3.90;;;;;;;33.37;33.24;96495.38;5053088;28;20081;-68
2023/06/20 07:08:22;;;;;;;4.03;3.63;;;;;;;33.37;32.25;96503.50;5053029;28;20107;-68
2023/06/20 07:10:50;;;;;;;6.65;4.15;;;;;;;33.51;31.58;96504.38;5052906;28;20044;-68
2023/06/20 07:13:17;;;;;;;4.72;4.15;;;;;;;33.59;32.54;96502.53;5053119;28;20045;-68
2023/06/20 07:15:44;;;;;;;4.47;3.88;;;;;;;33.67;31.17;96501.50;5052826;28;20053;-68
2023/06/20 07:18:11;;;;;;;4.32;3.92;;;;;;;33.61;32.31;96501.28;5052747;28;20128;-68
2023/06/20 07:20:40;;;;;;;4.45;4.05;;;;;;;33.58;31.09;96493.53;5052841;28;20136;-68
2023/06/20 07:23:07;;;;;;;6.55;3.58;;;;;;;33.61;31.46;96495.88;5052771;28;20053;-68
2023/06/20 07:25:34;;;;;;;5.25;4.20;;;;;;;33.72;33.28;96491.72;5052751;28;20049;-68
2023/06/20 07:28:01;;;;;;;4.47;4.07;;;;;;;33.32;32.43;96487.06;5052656;28;20099;-68
2023/06/20 07:30:28;;;;;;;4.75;4.30;;;;;;;32.92;32.93;96493.13;5052571;28;20132;-68
2023/06/20 07:32:55;;;;;;;4.00;3.60;;;;;;;32.59;33.58;96491.13;5052640;28;20056;-68
2023/06/20 07:35:22;;;;;;;7.40;3.92;;;;;;;32.32;34.37;96497.16;5052817;28;20048;-68
2023/06/20 07:37:51;;;;;;;6.10;4.05;;;;;;;32.18;35.62;96498.13;5055396;28;20063;-68
2023/06/20 07:40:18;;;;;;;5.20;3.92;;;;;;;32.25;35.74;96505.25;5056208;28;20502;-68
2023/06/20 07:42:45;;;;;;;5.47;3.95;;;;;;;32.34;35.41;96495.13;5056331;28;20049;-68
2023/06/20 07:45:12;;;;;;;6.88;3.97;;;;;;;32.35;35.17;96507.59;5056268;28;20049;-68
2023/06/20 07:47:39;;;;;;;4.30;3.70;;;;;;;32.36;34.40;96505.75;5056120;28;20064;-68
2023/06/20 07:50:08;;;;;;;6.05;3.72;;;;;;;32.36;34.37;96501.13;5056128;28;20052;-68
2023/06/20 07:52:35;;;;;;;6.65;4.15;;;;;;;32.53;34.08;96496.28;5056065;28;20048;-68
2023/06/20 07:55:05;;;;;;;4.90;3.92;;;;;;;32.39;32.29;96506.16;5056026;28;20044;-68
2023/06/20 07:57:32;;;;;;;4.25;3.85;;;;;;;32.61;34.42;96503.41;5055992;28;20049;-68
2023/06/20 07:59:59;;;;;;;4.38;3.65;;;;;;;32.79;32.04;96496.63;5055904;28;20552;-68
2023/06/20 08:02:28;;;;;;;3.85;3.33;;;;;;;32.92;33.16;96498.53;5055846;28;20513;-68
2023/06/20 08:04:55;;;;;;;6.22;3.58;;;;;;;33.26;33.56;96504.13;5055891;28;20045;-68
2023/06/20 08:07:22;;;;;;;5.15;4.18;;;;;;;33.44;35.37;96495.41;5055879;28;20067;-68
2023/06/20 08:09:49;;;;;;;4.13;3.72;;;;;;;33.43;32.21;96496.44;5055771;28;20040;-69
2023/06/20 08:12:18;;;;;;;5.47;3.80;;;;;;;33.60;33.73;96501.50;5055651;28;20080;-69
2023/06/20 08:14:45;;;;;;;6.05;4.32;;;;;;;33.61;35.49;96495.03;5055875;28;20132;-68
2023/06/20 08:17:14;;;;;;;5.43;4.70;;;;;;;33.74;35.18;96494.22;5055698;28;20466;-68
2023/06/20 08:19:41;;;;;;;5.45;4.50;;;;;;;33.65;34.18;96499.81;5055555;28;20044;-68
2023/06/20 08:22:08;;;;;;;6.03;4.20;;;;;;;33.78;34.34;96499.03;5055475;28;20059;-68
2023/06/20 08:24:35;;;;;;;5.47;4.50;;;;;;;33.82;33.98;96498.56;5055538;28;20051;-68
2023/06/20 08:27:03;;;;;;;10.68;5.32;;;;;;;33.63;34.92;96496.50;5055519;28;20555;-68
2023/06/20 08:29:32;;;;;;;5.10;4.57;;;;;;;33.48;34.78;96499.38;5055497;28;20451;-68
2023/06/20 08:31:59;;;;;;;4.63;4.22;;;;;;;33.14;35.87;96499.28;5055367;28;20052;-68
2023/06/20 08:34:26;;;;;;;8.05;4.80;;;;;;;32.43;36.57;96503.91;5055427;28;20056;-69
2023/06/20 08:36:53;;;;;;;5.97;5.35;;;;;;;32.06;38.20;96500.53;5055307;28;20742;-68
2023/06/20 08:39:21;;;;;;;6.25;4.80;;;;;;;31.84;38.51;96495.16;5055219;28;20055;-69
2023/06/20 08:41:50;;;;;;;5.03;4.53;;;;;;;31.51;40.64;96485.69;5055192;28;20080;-68
2023/06/20 08:44:17;;;;;;;6.20;5.00;;;;;;;31.65;38.48;96492.06;5055093;28;20076;-68
2023/06/20 08:46:46;;;;;;;7.05;4.63;;;;;;;31.69;38.96;96490.63;5055138;28;20045;-68
2023/06/20 08:49:14;;;;;;;7.47;5.28;;;;;;;31.60;40.06;96483.72;5054995;28;20056;-69
2023/06/20 08:51:46;;;;;;;6.85;5.05;;;;;;;31.29;40.45;96485.66;5054867;28;20567;-68
2023/06/20 08:54:17;;;;;;;5.72;5.15;;;;;;;30.80;38.38;96488.03;5054867;28;20049;-68
2023/06/20 08:56:44;;;;;;;5.13;4.45;;;;;;;30.69;40.71;96483.06;5054916;28;20055;-68
2023/06/20 08:59:11;;;;;;;6.25;4.93;;;;;;;30.81;40.09;96481.59;5054881;28;20091;-68
2023/06/20 09:01:38;;;;;;;8.38;4.40;;;;;;;30.74;38.50;96484.19;5054660;28;20098;-68
2023/06/20 09:04:10;;;;;;;5.70;5.10;;;;;;;31.11;38.21;96486.94;5054940;28;20126;-68
2023/06/20 09:06:38;;;;;;;5.22;4.40;;;;;;;31.12;35.07;96485.06;5054658;28;20045;-68
2023/06/20 09:09:06;;;;;;;4.30;3.92;;;;;;;31.30;36.96;96495.41;5054709;28;20045;-68
2023/06/20 09:11:36;;;;;;;7.47;4.18;;;;;;;31.27;37.71;96488.56;5054577;28;20052;-68
2023/06/20 09:14:04;;;;;;;5.78;4.97;;;;;;;31.09;37.29;96485.47;5054532;28;20045;-69
2023/06/20 09:16:31;;;;;;;8.27;4.40;;;;;;;30.49;37.60;96495.25;5054550;28;20052;-68
2023/06/20 09:19:02;;;;;;;4.70;4.30;;;;;;;29.81;38.99;96489.84;5054467;28;20147;-68
2023/06/20 09:21:36;;;;;;;9.15;4.30;;;;;;;29.50;37.42;96495.13;5054622;28;20380;-68
2023/06/20 09:24:04;;;;;;;4.97;4.00;;;;;;;29.44;37.23;96493.16;5054408;28;20076;-68
2023/06/20 09:26:33;;;;;;;5.30;4.90;;;;;;;29.25;40.94;96498.00;5054455;28;20053;-68
2023/06/20 09:29:07;;;;;;;7.00;6.15;;;;;;;29.17;42.98;96489.13;5054295;28;20049;-68
2023/06/20 09:31:41;;;;;;;6.47;5.88;;;;;;;28.85;44.08;96475.63;5054068;28;20505;-68
2023/06/20 09:34:12;;;;;;;7.45;6.03;;;;;;;28.81;44.98;96469.78;5054227;28;20114;-68
2023/06/20 09:36:43;;;;;;;9.32;6.70;;;;;;;28.88;46.25;96470.75;5054131;28;20045;-69
2023/06/20 09:39:15;;;;;;;7.22;5.90;;;;;;;28.54;41.60;96480.00;5054031;28;20057;-68
2023/06/20 09:41:46;;;;;;;8.80;6.22;;;;;;;27.87;45.21;96476.56;5054065;28;20171;-68
2023/06/20 09:44:14;;;;;;;5.80;5.30;;;;;;;27.81;44.52;96471.91;5053830;28;20131;-69
2023/06/20 09:46:41;;;;;;;7.55;5.80;;;;;;;27.78;44.44;96475.75;5054022;28;20478;-69
2023/06/20 09:49:08;;;;;;;6.55;5.63;;;;;;;28.02;44.74;96478.59;5053956;28;20048;-69
2023/06/20 09:51:44;;;;;;;6.63;5.93;;;;;;;28.48;46.85;96461.84;5053892;28;20049;-68
2023/06/20 09:54:13;;;;;;;6.70;5.90;;;;;;;29.02;45.80;96484.50;5053923;28;20049;-69
2023/06/20 09:56:46;;;;;;;7.78;4.53;;;;;;;29.33;38.54;96480.94;5053853;28;20071;-69
2023/06/20 09:59:15;;;;;;;5.32;4.68;;;;;;;29.45;38.31;96492.13;5053146;28;20045;-69
2023/06/20 10:01:43;;;;;;;5.78;4.40;;;;;;;29.64;37.80;96482.75;5053496;28;20057;-69
2023/06/20 10:04:11;;;;;;;4.57;4.18;;;;;;;29.74;36.34;96470.91;5053696;28;20445;-69
2023/06/20 10:06:41;;;;;;;4.18;3.78;;;;;;;29.51;36.65;96477.97;5053768;28;20077;-69
2023/06/20 10:09:09;;;;;;;4.40;4.03;;;;;;;29.56;36.90;96468.53;5053568;28;20174;-69
2023/06/20 10:11:37;;;;;;;6.53;3.90;;;;;;;29.72;37.66;96465.69;5053362;28;20049;-68
2023/06/20 10:14:05;;;;;;;4.68;3.92;;;;;;;29.73;34.95;96469.19;5053515;28;20049;-69
2023/06/20 10:16:32;;;;;;;6.15;4.38;;;;;;;29.96;35.52;96463.78;5053470;28;20106;-69
2023/06/20 10:18:59;;;;;;;5.50;4.10;;;;;;;30.15;37.21;96453.47;5053610;28;20049;-69
2023/06/20 10:21:57;;;;;;;3.67;3.38;;;;;;;30.51;36.23;96444.66;5053437;28;20143;-69
2023/06/20 10:24:26;;;;;;;3.45;3.13;;;;;;;30.67;33.11;96447.34;5053250;28;20494;-69
2023/06/20 10:26:54;;;;;;;4.07;3.17;;;;;;;30.86;35.53;96449.50;5053352;28;20127;-69
2023/06/20 10:29:22;;;;;;;5.30;3.38;;;;;;;31.02;33.96;96461.06;5053405;28;20053;-69
2023/06/20 10:32:04;;;;;;;4.35;3.63;;;;;;;31.03;33.22;96465.44;5053206;28;20044;-69
2023/06/20 10:34:35;;;;;;;4.00;3.20;;;;;;;30.75;31.69;96456.16;5053315;28;20517;-69
2023/06/20 10:37:17;;;;;;;8.88;3.97;;;;;;;30.86;35.01;96464.84;5053141;28;20534;-69
2023/06/20 10:39:52;;;;;;;3.40;3.10;;;;;;;30.85;30.58;96468.56;5053326;28;20059;-69
2023/06/20 10:42:33;;;;;;;6.18;3.15;;;;;;;30.86;31.96;96475.63;5053130;28;20044;-69
2023/06/20 10:45:14;;;;;;;;;;;;;;;30.89;31.41;96477.94;5053460;28;20045;-69
2023/06/20 10:47:43;;;;;;;5.38;3.35;;;;;;;30.43;31.85;96487.09;5053050;28;20263;-69
2023/06/20 10:50:10;;;;;;;10.82;3.80;;;;;;;29.19;33.16;96487.94;5053192;28;20128;-69
2023/06/20 10:52:39;;;;;;;5.93;3.28;;;;;;;28.59;33.89;96499.13;5052844;28;21105;-68
2023/06/20 10:55:09;;;;;;;11.98;3.50;;;;;;;28.04;33.28;96498.06;5053088;28;20052;-68
2023/06/20 10:57:36;;;;;;;4.38;3.95;;;;;;;27.34;37.06;96496.53;5053129;28;20056;-69
2023/06/20 11:00:14;;;;;;;5.28;3.40;;;;;;;27.08;39.08;96488.59;5052735;28;20128;-69
2023/06/20 11:02:42;;;;;;;5.30;4.03;;;;;;;26.73;40.38;96485.97;5052948;28;20045;-69
2023/06/20 11:05:10;;;;;;;6.53;4.05;;;;;;;26.37;42.57;96485.13;5052867;28;20045;-69
2023/06/20 11:07:53;;;;;;;4.60;4.20;;;;;;;26.06;42.67;96507.00;5052899;28;20425;-69
2023/06/20 11:10:21;;;;;;;5.28;4.30;;;;;;;25.88;43.56;96519.63;5052720;28;20453;-69
2023/06/20 11:12:48;;;;;;;4.40;3.97;;;;;;;25.55;45.93;96504.91;5055777;28;20049;-69
2023/06/20 11:15:27;;;;;;;5.40;3.92;;;;;;;25.17;44.32;96517.63;5056861;28;20053;-69
2023/06/20 11:17:55;;;;;;;5.18;4.00;;;;;;;24.67;45.40;96536.56;5056754;28;20170;-68
2023/06/20 11:20:24;;;;;;;3.60;3.30;;;;;;;24.27;45.16;96535.03;5056699;28;20071;-69
2023/06/20 11:22:55;;;;;;;3.58;3.17;;;;;;;24.05;45.67;96535.19;5056767;28;20041;-69
2023/06/20 11:25:28;;;;;;;3.92;2.90;;;;;;;23.65;46.42;96536.19;5056663;28;20509;-68
2023/06/20 11:27:55;;;;;;;3.63;3.33;;;;;;;23.72;47.90;96532.00;5056519;28;20051;-68
2023/06/20 11:30:30;;;;;;;9.45;3.85;;;;;;;23.65;49.91;96523.72;5056474;28;20072;-68
2023/06/20 11:33:01;;;;;;;5.40;3.13;;;;;;;23.51;50.92;96524.13;5056365;28;20088;-69
2023/06/20 11:35:40;;;;;;;4.05;3.22;;;;;;;23.26;51.50;96526.34;5056377;28;20537;-69
2023/06/20 11:38:10;;;;;;;4.83;3.67;;;;;;;23.02;52.17;96527.56;5056435;28;20494;-69
2023/06/20 11:40:38;;;;;;;3.90;3.53;;;;;;;22.88;52.49;96532.31;5056459;28;20487;-69
2023/06/20 11:43:05;;;;;;;4.13;3.53;;;;;;;22.77;52.71;96519.91;5056222;28;20114;-68
2023/06/20 11:45:33;;;;;;;5.22;3.22;;;;;;;22.99;51.15;96522.50;5056230;28;20045;-68
2023/06/20 11:48:11;;;;;;;3.78;2.85;;;;;;;23.02;50.70;96532.91;5056183;28;20084;-69
2023/06/20 11:50:38;;;;;;;4.40;3.13;;;;;;;23.00;49.61;96537.53;5056116;28;20048;-69
2023/06/20 11:53:05;;;;;;;3.97;3.00;;;;;;;23.01;50.92;96539.19;5056000;28;20413;-69
2023/06/20 11:55:47;;;;;;;4.32;3.38;;;;;;;23.06;52.26;96550.31;5056105;28;20049;-69